sensor_id;sensor_type;location;lat;lon;timestamp;P1;durP1;ratioP1;P2;durP2;ratioP2
32321;SDS011;61553;48.994;8.940;2024-03-02T00:02:12;22.55;;;11.68;;
32321;SDS011;61553;48.994;8.940;2024-03-02T00:04:38;22.70;;;11.43;;
32321;SDS011;61553;48.994;8.940;2024-03-02T00:07:03;22.75;;;11.90;;
32321;SDS011;61553;48.994;8.940;2024-03-02T00:09:29;20.95;;;11.13;;
32321;SDS011;61553;48.994;8.940;2024-03-02T00:11:55;21.85;;;10.85;;
32321;SDS011;61553;48.994;8.940;2024-03-02T00:14:21;22.67;;;10.70;;
32321;SDS011;61553;48.994;8.940;2024-03-02T00:16:49;18.88;;;10.55;;
32321;SDS011;61553;48.994;8.940;2024-03-02T00:19:16;20.73;;;12.02;;
32321;SDS011;61553;48.994;8.940;2024-03-02T00:21:42;19.90;;;10.95;;
32321;SDS011;61553;48.994;8.940;2024-03-02T00:24:18;21.38;;;10.93;;
32321;SDS011;61553;48.994;8.940;2024-03-02T00:26:45;26.63;;;12.35;;
32321;SDS011;61553;48.994;8.940;2024-03-02T00:29:12;33.28;;;13.52;;
32321;SDS011;61553;48.994;8.940;2024-03-02T00:31:40;27.77;;;13.93;;
32321;SDS011;61553;48.994;8.940;2024-03-02T00:34:06;24.23;;;12.75;;
32321;SDS011;61553;48.994;8.940;2024-03-02T00:36:32;22.60;;;12.40;;
32321;SDS011;61553;48.994;8.940;2024-03-02T00:38:58;28.08;;;12.35;;
32321;SDS011;61553;48.994;8.940;2024-03-02T00:41:25;27.40;;;13.05;;
32321;SDS011;61553;48.994;8.940;2024-03-02T00:46:29;23.92;;;12.07;;
32321;SDS011;61553;48.994;8.940;2024-03-02T00:48:59;23.42;;;12.00;;
32321;SDS011;61553;48.994;8.940;2024-03-02T00:51:27;21.17;;;12.82;;
32321;SDS011;61553;48.994;8.940;2024-03-02T00:53:55;25.67;;;13.00;;
32321;SDS011;61553;48.994;8.940;2024-03-02T00:56:23;26.90;;;13.07;;
32321;SDS011;61553;48.994;8.940;2024-03-02T00:58:49;28.42;;;13.18;;
32321;SDS011;61553;48.994;8.940;2024-03-02T01:01:15;26.90;;;13.88;;
32321;SDS011;61553;48.994;8.940;2024-03-02T01:03:42;24.50;;;12.13;;
32321;SDS011;61553;48.994;8.940;2024-03-02T01:06:07;28.45;;;14.68;;
32321;SDS011;61553;48.994;8.940;2024-03-02T01:08:34;25.08;;;13.10;;
32321;SDS011;61553;48.994;8.940;2024-03-02T01:11:00;28.40;;;14.10;;
32321;SDS011;61553;48.994;8.940;2024-03-02T01:13:26;25.48;;;12.98;;
32321;SDS011;61553;48.994;8.940;2024-03-02T01:15:52;26.08;;;14.10;;
32321;SDS011;61553;48.994;8.940;2024-03-02T01:18:18;29.50;;;14.90;;
32321;SDS011;61553;48.994;8.940;2024-03-02T01:20:44;32.80;;;15.50;;
32321;SDS011;61553;48.994;8.940;2024-03-02T01:23:10;31.30;;;15.60;;
32321;SDS011;61553;48.994;8.940;2024-03-02T01:25:36;31.00;;;13.25;;
32321;SDS011;61553;48.994;8.940;2024-03-02T01:28:02;31.70;;;15.88;;
32321;SDS011;61553;48.994;8.940;2024-03-02T01:30:28;25.13;;;12.73;;
32321;SDS011;61553;48.994;8.940;2024-03-02T01:32:54;28.30;;;14.45;;
32321;SDS011;61553;48.994;8.940;2024-03-02T01:35:20;28.38;;;14.65;;
32321;SDS011;61553;48.994;8.940;2024-03-02T01:37:45;23.50;;;13.52;;
32321;SDS011;61553;48.994;8.940;2024-03-02T01:40:11;27.05;;;13.40;;
32321;SDS011;61553;48.994;8.940;2024-03-02T01:42:37;26.75;;;14.07;;
32321;SDS011;61553;48.994;8.940;2024-03-02T01:45:09;26.17;;;12.82;;
32321;SDS011;61553;48.994;8.940;2024-03-02T01:47:35;28.40;;;13.00;;
32321;SDS011;61553;48.994;8.940;2024-03-02T01:50:01;27.77;;;14.07;;
32321;SDS011;61553;48.994;8.940;2024-03-02T01:52:27;22.50;;;12.10;;
32321;SDS011;61553;48.994;8.940;2024-03-02T01:54:53;26.55;;;14.60;;
32321;SDS011;61553;48.994;8.940;2024-03-02T01:57:18;24.15;;;13.55;;
32321;SDS011;61553;48.994;8.940;2024-03-02T01:59:44;28.10;;;12.88;;
32321;SDS011;61553;48.994;8.940;2024-03-02T02:02:12;25.58;;;12.20;;
32321;SDS011;61553;48.994;8.940;2024-03-02T02:04:39;25.08;;;12.02;;
32321;SDS011;61553;48.994;8.940;2024-03-02T02:07:04;21.63;;;11.52;;
32321;SDS011;61553;48.994;8.940;2024-03-02T02:09:31;20.92;;;10.80;;
32321;SDS011;61553;48.994;8.940;2024-03-02T02:11:57;23.23;;;11.95;;
32321;SDS011;61553;48.994;8.940;2024-03-02T02:14:23;24.75;;;12.35;;
32321;SDS011;61553;48.994;8.940;2024-03-02T02:16:49;23.08;;;11.80;;
32321;SDS011;61553;48.994;8.940;2024-03-02T02:19:14;27.67;;;13.48;;
32321;SDS011;61553;48.994;8.940;2024-03-02T02:21:43;21.00;;;11.52;;
32321;SDS011;61553;48.994;8.940;2024-03-02T02:24:09;24.88;;;12.95;;
32321;SDS011;61553;48.994;8.940;2024-03-02T02:26:34;23.73;;;11.18;;
32321;SDS011;61553;48.994;8.940;2024-03-02T02:29:00;28.10;;;12.63;;
32321;SDS011;61553;48.994;8.940;2024-03-02T02:31:26;26.08;;;12.20;;
32321;SDS011;61553;48.994;8.940;2024-03-02T02:33:51;24.83;;;11.73;;
32321;SDS011;61553;48.994;8.940;2024-03-02T02:36:17;21.23;;;11.57;;
32321;SDS011;61553;48.994;8.940;2024-03-02T02:38:43;23.58;;;11.93;;
32321;SDS011;61553;48.994;8.940;2024-03-02T02:41:11;22.75;;;11.75;;
32321;SDS011;61553;48.994;8.940;2024-03-02T02:43:37;22.98;;;11.45;;
32321;SDS011;61553;48.994;8.940;2024-03-02T02:46:04;23.10;;;11.20;;
32321;SDS011;61553;48.994;8.940;2024-03-02T02:48:30;30.27;;;12.60;;
32321;SDS011;61553;48.994;8.940;2024-03-02T02:50:56;24.20;;;12.55;;
32321;SDS011;61553;48.994;8.940;2024-03-02T02:53:21;23.08;;;12.48;;
32321;SDS011;61553;48.994;8.940;2024-03-02T02:55:47;25.73;;;12.30;;
32321;SDS011;61553;48.994;8.940;2024-03-02T02:58:12;23.58;;;11.68;;
32321;SDS011;61553;48.994;8.940;2024-03-02T03:00:39;20.92;;;11.30;;
32321;SDS011;61553;48.994;8.940;2024-03-02T03:03:05;25.13;;;11.48;;
32321;SDS011;61553;48.994;8.940;2024-03-02T03:05:31;25.23;;;12.65;;
32321;SDS011;61553;48.994;8.940;2024-03-02T03:07:57;24.92;;;11.65;;
32321;SDS011;61553;48.994;8.940;2024-03-02T03:10:22;23.17;;;13.30;;
32321;SDS011;61553;48.994;8.940;2024-03-02T03:12:50;26.42;;;11.98;;
32321;SDS011;61553;48.994;8.940;2024-03-02T03:15:16;26.02;;;13.77;;
32321;SDS011;61553;48.994;8.940;2024-03-02T03:17:42;25.20;;;13.38;;
32321;SDS011;61553;48.994;8.940;2024-03-02T03:20:08;28.85;;;13.82;;
32321;SDS011;61553;48.994;8.940;2024-03-02T03:22:40;26.48;;;12.18;;
32321;SDS011;61553;48.994;8.940;2024-03-02T03:25:06;24.80;;;12.77;;
32321;SDS011;61553;48.994;8.940;2024-03-02T03:27:35;24.67;;;12.55;;
32321;SDS011;61553;48.994;8.940;2024-03-02T03:30:00;25.77;;;13.65;;
32321;SDS011;61553;48.994;8.940;2024-03-02T03:32:27;30.27;;;13.85;;
32321;SDS011;61553;48.994;8.940;2024-03-02T03:34:53;26.73;;;14.00;;
32321;SDS011;61553;48.994;8.940;2024-03-02T03:37:19;29.02;;;14.18;;
32321;SDS011;61553;48.994;8.940;2024-03-02T03:39:44;32.60;;;13.48;;
32321;SDS011;61553;48.994;8.940;2024-03-02T03:42:10;28.65;;;13.50;;
32321;SDS011;61553;48.994;8.940;2024-03-02T03:44:36;26.27;;;13.27;;
32321;SDS011;61553;48.994;8.940;2024-03-02T03:47:02;27.55;;;13.40;;
32321;SDS011;61553;48.994;8.940;2024-03-02T03:49:27;27.13;;;13.65;;
32321;SDS011;61553;48.994;8.940;2024-03-02T03:51:53;27.75;;;14.23;;
32321;SDS011;61553;48.994;8.940;2024-03-02T03:54:19;31.80;;;12.90;;
32321;SDS011;61553;48.994;8.940;2024-03-02T03:56:44;24.50;;;12.70;;
32321;SDS011;61553;48.994;8.940;2024-03-02T03:59:10;27.27;;;13.88;;
32321;SDS011;61553;48.994;8.940;2024-03-02T04:01:36;31.40;;;14.40;;
32321;SDS011;61553;48.994;8.940;2024-03-02T04:04:02;25.15;;;12.65;;
32321;SDS011;61553;48.994;8.940;2024-03-02T04:06:28;25.88;;;12.38;;
32321;SDS011;61553;48.994;8.940;2024-03-02T04:08:54;23.63;;;13.25;;
32321;SDS011;61553;48.994;8.940;2024-03-02T04:11:19;25.67;;;14.00;;
32321;SDS011;61553;48.994;8.940;2024-03-02T04:13:45;30.55;;;13.88;;
32321;SDS011;61553;48.994;8.940;2024-03-02T04:16:11;31.75;;;15.18;;
32321;SDS011;61553;48.994;8.940;2024-03-02T04:18:37;28.85;;;14.05;;
32321;SDS011;61553;48.994;8.940;2024-03-02T04:21:04;34.53;;;15.63;;
32321;SDS011;61553;48.994;8.940;2024-03-02T04:23:30;37.95;;;16.55;;
32321;SDS011;61553;48.994;8.940;2024-03-02T04:25:56;34.85;;;17.17;;
32321;SDS011;61553;48.994;8.940;2024-03-02T04:28:21;42.53;;;19.80;;
32321;SDS011;61553;48.994;8.940;2024-03-02T04:30:47;35.03;;;17.08;;
32321;SDS011;61553;48.994;8.940;2024-03-02T04:33:13;37.00;;;18.38;;
32321;SDS011;61553;48.994;8.940;2024-03-02T04:35:38;38.95;;;18.65;;
32321;SDS011;61553;48.994;8.940;2024-03-02T04:38:04;41.08;;;18.42;;
32321;SDS011;61553;48.994;8.940;2024-03-02T04:40:30;42.45;;;19.77;;
32321;SDS011;61553;48.994;8.940;2024-03-02T04:42:55;34.40;;;16.75;;
32321;SDS011;61553;48.994;8.940;2024-03-02T04:45:21;58.30;;;28.33;;
32321;SDS011;61553;48.994;8.940;2024-03-02T04:47:46;73.80;;;31.25;;
32321;SDS011;61553;48.994;8.940;2024-03-02T04:50:12;52.00;;;26.25;;
32321;SDS011;61553;48.994;8.940;2024-03-02T04:52:38;40.00;;;19.85;;
32321;SDS011;61553;48.994;8.940;2024-03-02T04:55:04;31.00;;;15.90;;
32321;SDS011;61553;48.994;8.940;2024-03-02T04:57:54;28.08;;;13.68;;
32321;SDS011;61553;48.994;8.940;2024-03-02T05:00:21;33.28;;;16.70;;
32321;SDS011;61553;48.994;8.940;2024-03-02T05:02:46;29.35;;;16.25;;
32321;SDS011;61553;48.994;8.940;2024-03-02T05:05:12;34.22;;;16.48;;
32321;SDS011;61553;48.994;8.940;2024-03-02T05:07:40;36.55;;;15.18;;
32321;SDS011;61553;48.994;8.940;2024-03-02T05:10:07;30.60;;;15.60;;
32321;SDS011;61553;48.994;8.940;2024-03-02T05:12:33;31.35;;;15.43;;
32321;SDS011;61553;48.994;8.940;2024-03-02T05:15:08;31.13;;;13.85;;
32321;SDS011;61553;48.994;8.940;2024-03-02T05:17:39;35.25;;;15.10;;
32321;SDS011;61553;48.994;8.940;2024-03-02T05:20:08;33.08;;;15.50;;
32321;SDS011;61553;48.994;8.940;2024-03-02T05:22:34;33.92;;;16.33;;
32321;SDS011;61553;48.994;8.940;2024-03-02T05:25:03;32.88;;;15.93;;
32321;SDS011;61553;48.994;8.940;2024-03-02T05:27:29;31.80;;;14.85;;
32321;SDS011;61553;48.994;8.940;2024-03-02T05:29:56;38.78;;;18.10;;
32321;SDS011;61553;48.994;8.940;2024-03-02T05:32:22;31.77;;;16.05;;
32321;SDS011;61553;48.994;8.940;2024-03-02T05:34:48;34.03;;;16.02;;
32321;SDS011;61553;48.994;8.940;2024-03-02T05:37:15;37.75;;;16.58;;
32321;SDS011;61553;48.994;8.940;2024-03-02T05:39:41;34.20;;;16.67;;
32321;SDS011;61553;48.994;8.940;2024-03-02T05:42:08;31.00;;;14.93;;
32321;SDS011;61553;48.994;8.940;2024-03-02T05:44:34;43.45;;;19.52;;
32321;SDS011;61553;48.994;8.940;2024-03-02T05:47:00;42.15;;;21.42;;
32321;SDS011;61553;48.994;8.940;2024-03-02T05:49:26;38.00;;;19.15;;
32321;SDS011;61553;48.994;8.940;2024-03-02T05:51:52;45.17;;;20.10;;
32321;SDS011;61553;48.994;8.940;2024-03-02T05:54:17;35.50;;;16.92;;
32321;SDS011;61553;48.994;8.940;2024-03-02T05:56:43;31.27;;;14.80;;
32321;SDS011;61553;48.994;8.940;2024-03-02T05:59:09;31.92;;;15.57;;
32321;SDS011;61553;48.994;8.940;2024-03-02T06:01:41;76.20;;;35.05;;
32321;SDS011;61553;48.994;8.940;2024-03-02T06:04:08;76.22;;;35.72;;
32321;SDS011;61553;48.994;8.940;2024-03-02T06:06:34;56.55;;;26.92;;
32321;SDS011;61553;48.994;8.940;2024-03-02T06:09:00;36.25;;;18.00;;
32321;SDS011;61553;48.994;8.940;2024-03-02T06:11:27;35.50;;;16.20;;
32321;SDS011;61553;48.994;8.940;2024-03-02T06:13:53;35.65;;;17.08;;
32321;SDS011;61553;48.994;8.940;2024-03-02T06:16:18;37.65;;;18.25;;
32321;SDS011;61553;48.994;8.940;2024-03-02T06:18:44;52.10;;;22.23;;
32321;SDS011;61553;48.994;8.940;2024-03-02T06:21:10;75.35;;;31.67;;
32321;SDS011;61553;48.994;8.940;2024-03-02T06:23:35;90.47;;;38.08;;
32321;SDS011;61553;48.994;8.940;2024-03-02T06:26:01;81.35;;;34.45;;
32321;SDS011;61553;48.994;8.940;2024-03-02T06:28:27;95.07;;;43.33;;
32321;SDS011;61553;48.994;8.940;2024-03-02T06:30:53;85.20;;;40.13;;
32321;SDS011;61553;48.994;8.940;2024-03-02T06:33:19;54.40;;;28.55;;
32321;SDS011;61553;48.994;8.940;2024-03-02T06:35:44;41.63;;;21.98;;
32321;SDS011;61553;48.994;8.940;2024-03-02T06:38:10;63.08;;;30.17;;
32321;SDS011;61553;48.994;8.940;2024-03-02T06:40:36;56.42;;;29.13;;
32321;SDS011;61553;48.994;8.940;2024-03-02T06:43:03;52.47;;;28.95;;
32321;SDS011;61553;48.994;8.940;2024-03-02T06:45:29;37.47;;;19.65;;
32321;SDS011;61553;48.994;8.940;2024-03-02T06:47:55;34.75;;;18.95;;
32321;SDS011;61553;48.994;8.940;2024-03-02T06:50:21;43.30;;;18.17;;
32321;SDS011;61553;48.994;8.940;2024-03-02T06:52:47;39.67;;;20.17;;
32321;SDS011;61553;48.994;8.940;2024-03-02T06:55:12;43.60;;;19.33;;
32321;SDS011;61553;48.994;8.940;2024-03-02T06:57:38;41.80;;;19.25;;
32321;SDS011;61553;48.994;8.940;2024-03-02T07:00:04;38.50;;;18.23;;
32321;SDS011;61553;48.994;8.940;2024-03-02T07:02:31;38.85;;;17.98;;
32321;SDS011;61553;48.994;8.940;2024-03-02T07:04:57;37.70;;;16.98;;
32321;SDS011;61553;48.994;8.940;2024-03-02T07:07:23;40.15;;;16.90;;
32321;SDS011;61553;48.994;8.940;2024-03-02T07:09:48;42.33;;;18.45;;
32321;SDS011;61553;48.994;8.940;2024-03-02T07:12:14;41.08;;;18.15;;
32321;SDS011;61553;48.994;8.940;2024-03-02T07:14:40;37.40;;;18.85;;
32321;SDS011;61553;48.994;8.940;2024-03-02T07:17:24;42.03;;;19.05;;
32321;SDS011;61553;48.994;8.940;2024-03-02T07:19:50;42.70;;;19.55;;
32321;SDS011;61553;48.994;8.940;2024-03-02T07:22:16;43.58;;;19.70;;
32321;SDS011;61553;48.994;8.940;2024-03-02T07:24:43;44.65;;;25.40;;
32321;SDS011;61553;48.994;8.940;2024-03-02T07:27:10;48.63;;;21.10;;
32321;SDS011;61553;48.994;8.940;2024-03-02T07:29:37;38.22;;;17.77;;
32321;SDS011;61553;48.994;8.940;2024-03-02T07:32:03;49.53;;;19.65;;
32321;SDS011;61553;48.994;8.940;2024-03-02T07:34:30;39.92;;;17.60;;
32321;SDS011;61553;48.994;8.940;2024-03-02T07:36:55;39.63;;;16.10;;
32321;SDS011;61553;48.994;8.940;2024-03-02T07:39:21;36.88;;;16.77;;
32321;SDS011;61553;48.994;8.940;2024-03-02T07:41:47;37.67;;;17.25;;
32321;SDS011;61553;48.994;8.940;2024-03-02T07:44:13;35.13;;;16.45;;
32321;SDS011;61553;48.994;8.940;2024-03-02T07:46:43;37.25;;;16.90;;
32321;SDS011;61553;48.994;8.940;2024-03-02T07:49:08;38.80;;;17.73;;
32321;SDS011;61553;48.994;8.940;2024-03-02T07:51:34;37.45;;;16.33;;
32321;SDS011;61553;48.994;8.940;2024-03-02T07:54:01;38.28;;;17.60;;
32321;SDS011;61553;48.994;8.940;2024-03-02T07:56:27;35.08;;;18.88;;
32321;SDS011;61553;48.994;8.940;2024-03-02T07:58:53;37.85;;;18.90;;
32321;SDS011;61553;48.994;8.940;2024-03-02T08:01:19;53.00;;;19.65;;
32321;SDS011;61553;48.994;8.940;2024-03-02T08:03:45;41.03;;;19.25;;
32321;SDS011;61553;48.994;8.940;2024-03-02T08:06:15;37.05;;;17.40;;
32321;SDS011;61553;48.994;8.940;2024-03-02T08:08:41;47.35;;;23.85;;
32321;SDS011;61553;48.994;8.940;2024-03-02T08:11:07;45.85;;;19.77;;
32321;SDS011;61553;48.994;8.940;2024-03-02T08:13:32;45.78;;;22.85;;
32321;SDS011;61553;48.994;8.940;2024-03-02T08:15:58;31.00;;;16.25;;
32321;SDS011;61553;48.994;8.940;2024-03-02T08:18:24;25.70;;;12.85;;
32321;SDS011;61553;48.994;8.940;2024-03-02T08:20:49;19.75;;;11.55;;
32321;SDS011;61553;48.994;8.940;2024-03-02T08:23:15;29.17;;;14.38;;
32321;SDS011;61553;48.994;8.940;2024-03-02T08:25:41;18.30;;;10.13;;
32321;SDS011;61553;48.994;8.940;2024-03-02T08:28:07;14.45;;;9.07;;
32321;SDS011;61553;48.994;8.940;2024-03-02T08:30:33;14.52;;;8.32;;
32321;SDS011;61553;48.994;8.940;2024-03-02T08:32:59;12.85;;;8.00;;
32321;SDS011;61553;48.994;8.940;2024-03-02T08:35:25;13.75;;;8.50;;
32321;SDS011;61553;48.994;8.940;2024-03-02T08:37:51;13.90;;;8.30;;
32321;SDS011;61553;48.994;8.940;2024-03-02T08:40:17;13.50;;;8.40;;
32321;SDS011;61553;48.994;8.940;2024-03-02T08:42:42;12.05;;;7.57;;
32321;SDS011;61553;48.994;8.940;2024-03-02T08:45:08;11.95;;;7.05;;
32321;SDS011;61553;48.994;8.940;2024-03-02T08:47:34;13.95;;;8.18;;
32321;SDS011;61553;48.994;8.940;2024-03-02T08:50:00;11.95;;;8.93;;
32321;SDS011;61553;48.994;8.940;2024-03-02T08:52:26;16.15;;;10.18;;
32321;SDS011;61553;48.994;8.940;2024-03-02T08:54:52;12.32;;;7.38;;
32321;SDS011;61553;48.994;8.940;2024-03-02T08:57:17;14.80;;;8.48;;
32321;SDS011;61553;48.994;8.940;2024-03-02T08:59:43;13.38;;;8.20;;
32321;SDS011;61553;48.994;8.940;2024-03-02T09:02:09;12.55;;;7.97;;
32321;SDS011;61553;48.994;8.940;2024-03-02T09:04:35;12.52;;;8.15;;
32321;SDS011;61553;48.994;8.940;2024-03-02T09:07:01;11.55;;;8.13;;
32321;SDS011;61553;48.994;8.940;2024-03-02T09:09:27;13.68;;;8.13;;
32321;SDS011;61553;48.994;8.940;2024-03-02T09:11:52;11.65;;;7.40;;
32321;SDS011;61553;48.994;8.940;2024-03-02T09:14:20;11.60;;;7.35;;
32321;SDS011;61553;48.994;8.940;2024-03-02T09:16:46;12.88;;;8.02;;
32321;SDS011;61553;48.994;8.940;2024-03-02T09:19:11;11.13;;;7.13;;
32321;SDS011;61553;48.994;8.940;2024-03-02T09:21:37;11.07;;;7.78;;
32321;SDS011;61553;48.994;8.940;2024-03-02T09:24:03;12.80;;;8.10;;
32321;SDS011;61553;48.994;8.940;2024-03-02T09:26:29;10.77;;;7.13;;
32321;SDS011;61553;48.994;8.940;2024-03-02T09:28:55;10.57;;;7.15;;
32321;SDS011;61553;48.994;8.940;2024-03-02T09:31:20;10.38;;;7.25;;
32321;SDS011;61553;48.994;8.940;2024-03-02T09:33:46;12.63;;;7.95;;
32321;SDS011;61553;48.994;8.940;2024-03-02T09:36:18;12.60;;;8.05;;
32321;SDS011;61553;48.994;8.940;2024-03-02T09:38:45;11.55;;;7.10;;
32321;SDS011;61553;48.994;8.940;2024-03-02T09:41:10;10.48;;;7.25;;
32321;SDS011;61553;48.994;8.940;2024-03-02T09:43:36;9.18;;;6.28;;
32321;SDS011;61553;48.994;8.940;2024-03-02T09:46:03;12.25;;;7.22;;
32321;SDS011;61553;48.994;8.940;2024-03-02T09:48:28;11.50;;;7.22;;
32321;SDS011;61553;48.994;8.940;2024-03-02T09:50:54;10.90;;;7.47;;
32321;SDS011;61553;48.994;8.940;2024-03-02T09:53:20;8.95;;;6.40;;
32321;SDS011;61553;48.994;8.940;2024-03-02T09:55:47;9.90;;;6.63;;
32321;SDS011;61553;48.994;8.940;2024-03-02T09:58:12;10.32;;;5.68;;
32321;SDS011;61553;48.994;8.940;2024-03-02T10:00:38;10.98;;;6.45;;
32321;SDS011;61553;48.994;8.940;2024-03-02T10:03:04;10.00;;;6.32;;
32321;SDS011;61553;48.994;8.940;2024-03-02T10:05:30;10.20;;;6.60;;
32321;SDS011;61553;48.994;8.940;2024-03-02T10:08:02;9.82;;;5.93;;
32321;SDS011;61553;48.994;8.940;2024-03-02T10:10:49;9.32;;;6.30;;
32321;SDS011;61553;48.994;8.940;2024-03-02T10:13:14;9.95;;;6.88;;
32321;SDS011;61553;48.994;8.940;2024-03-02T10:15:41;12.43;;;7.05;;
32321;SDS011;61553;48.994;8.940;2024-03-02T10:18:10;8.00;;;5.78;;
32321;SDS011;61553;48.994;8.940;2024-03-02T10:20:36;8.73;;;6.15;;
32321;SDS011;61553;48.994;8.940;2024-03-02T10:23:12;8.15;;;5.57;;
32321;SDS011;61553;48.994;8.940;2024-03-02T10:25:39;7.75;;;5.75;;
32321;SDS011;61553;48.994;8.940;2024-03-02T10:28:06;8.73;;;5.68;;
32321;SDS011;61553;48.994;8.940;2024-03-02T10:30:35;8.30;;;4.88;;
32321;SDS011;61553;48.994;8.940;2024-03-02T10:33:01;7.35;;;4.80;;
32321;SDS011;61553;48.994;8.940;2024-03-02T10:35:27;7.93;;;5.15;;
32321;SDS011;61553;48.994;8.940;2024-03-02T10:37:53;6.95;;;4.30;;
32321;SDS011;61553;48.994;8.940;2024-03-02T10:40:22;8.60;;;5.63;;
32321;SDS011;61553;48.994;8.940;2024-03-02T10:42:49;8.45;;;5.00;;
32321;SDS011;61553;48.994;8.940;2024-03-02T10:45:16;6.50;;;4.32;;
32321;SDS011;61553;48.994;8.940;2024-03-02T10:47:44;7.88;;;4.25;;
32321;SDS011;61553;48.994;8.940;2024-03-02T10:50:11;9.95;;;6.47;;
32321;SDS011;61553;48.994;8.940;2024-03-02T10:52:37;7.38;;;4.30;;
32321;SDS011;61553;48.994;8.940;2024-03-02T10:55:07;8.02;;;5.03;;
32321;SDS011;61553;48.994;8.940;2024-03-02T10:57:41;8.95;;;5.53;;
32321;SDS011;61553;48.994;8.940;2024-03-02T11:00:13;7.55;;;4.47;;
32321;SDS011;61553;48.994;8.940;2024-03-02T11:02:46;8.73;;;4.70;;
32321;SDS011;61553;48.994;8.940;2024-03-02T11:05:16;5.15;;;3.08;;
32321;SDS011;61553;48.994;8.940;2024-03-02T11:07:50;7.28;;;3.97;;
32321;SDS011;61553;48.994;8.940;2024-03-02T11:10:22;5.10;;;2.90;;
32321;SDS011;61553;48.994;8.940;2024-03-02T11:12:50;6.05;;;3.55;;
32321;SDS011;61553;48.994;8.940;2024-03-02T11:15:25;5.47;;;3.30;;
32321;SDS011;61553;48.994;8.940;2024-03-02T11:17:53;10.52;;;7.32;;
32321;SDS011;61553;48.994;8.940;2024-03-02T11:20:19;5.65;;;3.35;;
32321;SDS011;61553;48.994;8.940;2024-03-02T11:22:46;18.65;;;10.40;;
32321;SDS011;61553;48.994;8.940;2024-03-02T11:25:24;23.67;;;14.30;;
32321;SDS011;61553;48.994;8.940;2024-03-02T11:32:57;9.93;;;5.38;;
32321;SDS011;61553;48.994;8.940;2024-03-02T11:35:32;9.73;;;5.47;;
32321;SDS011;61553;48.994;8.940;2024-03-02T11:37:58;10.65;;;4.43;;
32321;SDS011;61553;48.994;8.940;2024-03-02T11:40:24;22.60;;;12.48;;
32321;SDS011;61553;48.994;8.940;2024-03-02T11:42:50;11.93;;;6.90;;
32321;SDS011;61553;48.994;8.940;2024-03-02T11:45:16;12.85;;;6.75;;
32321;SDS011;61553;48.994;8.940;2024-03-02T11:47:46;11.73;;;6.15;;
32321;SDS011;61553;48.994;8.940;2024-03-02T11:50:15;8.10;;;4.53;;
32321;SDS011;61553;48.994;8.940;2024-03-02T11:52:53;6.60;;;3.47;;
32321;SDS011;61553;48.994;8.940;2024-03-02T11:55:20;5.38;;;3.20;;
32321;SDS011;61553;48.994;8.940;2024-03-02T11:57:47;8.27;;;2.80;;
32321;SDS011;61553;48.994;8.940;2024-03-02T12:00:18;5.63;;;3.40;;
32321;SDS011;61553;48.994;8.940;2024-03-02T12:02:46;4.45;;;2.63;;
32321;SDS011;61553;48.994;8.940;2024-03-02T12:05:24;7.97;;;3.60;;
32321;SDS011;61553;48.994;8.940;2024-03-02T12:07:55;7.28;;;3.55;;
32321;SDS011;61553;48.994;8.940;2024-03-02T12:10:24;7.32;;;3.38;;
32321;SDS011;61553;48.994;8.940;2024-03-02T12:12:57;6.60;;;2.72;;
32321;SDS011;61553;48.994;8.940;2024-03-02T12:15:27;5.10;;;2.45;;
32321;SDS011;61553;48.994;8.940;2024-03-02T12:17:54;5.97;;;2.22;;
32321;SDS011;61553;48.994;8.940;2024-03-02T12:20:21;5.53;;;2.65;;
32321;SDS011;61553;48.994;8.940;2024-03-02T12:22:49;6.90;;;2.50;;
32321;SDS011;61553;48.994;8.940;2024-03-02T12:25:19;9.60;;;3.90;;
32321;SDS011;61553;48.994;8.940;2024-03-02T12:27:45;6.15;;;2.25;;
32321;SDS011;61553;48.994;8.940;2024-03-02T12:30:19;3.72;;;1.92;;
32321;SDS011;61553;48.994;8.940;2024-03-02T12:32:45;6.43;;;1.83;;
32321;SDS011;61553;48.994;8.940;2024-03-02T12:35:12;3.50;;;1.77;;
32321;SDS011;61553;48.994;8.940;2024-03-02T12:37:47;4.43;;;1.90;;
32321;SDS011;61553;48.994;8.940;2024-03-02T12:40:14;7.00;;;2.53;;
32321;SDS011;61553;48.994;8.940;2024-03-02T12:42:43;4.78;;;2.38;;
32321;SDS011;61553;48.994;8.940;2024-03-02T12:45:09;4.13;;;2.28;;
32321;SDS011;61553;48.994;8.940;2024-03-02T12:47:36;3.85;;;1.88;;
32321;SDS011;61553;48.994;8.940;2024-03-02T12:50:03;3.35;;;1.67;;
32321;SDS011;61553;48.994;8.940;2024-03-02T12:52:29;4.70;;;1.77;;
32321;SDS011;61553;48.994;8.940;2024-03-02T12:54:57;3.00;;;1.38;;
32321;SDS011;61553;48.994;8.940;2024-03-02T12:57:27;5.32;;;2.35;;
32321;SDS011;61553;48.994;8.940;2024-03-02T12:59:57;12.35;;;6.50;;
32321;SDS011;61553;48.994;8.940;2024-03-02T13:05:04;12.90;;;5.78;;
32321;SDS011;61553;48.994;8.940;2024-03-02T13:07:36;8.13;;;3.70;;
32321;SDS011;61553;48.994;8.940;2024-03-02T13:10:02;10.35;;;4.05;;
32321;SDS011;61553;48.994;8.940;2024-03-02T13:12:28;7.60;;;3.60;;
32321;SDS011;61553;48.994;8.940;2024-03-02T13:14:57;4.07;;;2.22;;
32321;SDS011;61553;48.994;8.940;2024-03-02T13:17:23;5.40;;;2.00;;
32321;SDS011;61553;48.994;8.940;2024-03-02T13:19:56;5.03;;;1.60;;
32321;SDS011;61553;48.994;8.940;2024-03-02T13:22:23;7.53;;;3.13;;
32321;SDS011;61553;48.994;8.940;2024-03-02T13:24:50;4.25;;;1.70;;
32321;SDS011;61553;48.994;8.940;2024-03-02T13:27:16;2.72;;;1.30;;
32321;SDS011;61553;48.994;8.940;2024-03-02T13:29:46;7.93;;;2.85;;
32321;SDS011;61553;48.994;8.940;2024-03-02T13:32:15;3.63;;;1.58;;
32321;SDS011;61553;48.994;8.940;2024-03-02T13:34:41;4.18;;;1.63;;
32321;SDS011;61553;48.994;8.940;2024-03-02T13:37:07;3.65;;;1.52;;
32321;SDS011;61553;48.994;8.940;2024-03-02T13:39:33;3.45;;;1.63;;
32321;SDS011;61553;48.994;8.940;2024-03-02T13:42:04;3.50;;;1.50;;
32321;SDS011;61553;48.994;8.940;2024-03-02T13:44:33;5.78;;;2.25;;
32321;SDS011;61553;48.994;8.940;2024-03-02T13:46:59;3.75;;;1.23;;
32321;SDS011;61553;48.994;8.940;2024-03-02T13:49:25;2.78;;;1.33;;
32321;SDS011;61553;48.994;8.940;2024-03-02T13:51:58;3.50;;;1.50;;
32321;SDS011;61553;48.994;8.940;2024-03-02T13:54:25;2.58;;;1.20;;
32321;SDS011;61553;48.994;8.940;2024-03-02T13:56:51;1.88;;;0.93;;
32321;SDS011;61553;48.994;8.940;2024-03-02T13:59:17;3.97;;;1.10;;
32321;SDS011;61553;48.994;8.940;2024-03-02T14:01:44;4.63;;;1.50;;
32321;SDS011;61553;48.994;8.940;2024-03-02T14:04:09;4.75;;;1.45;;
32321;SDS011;61553;48.994;8.940;2024-03-02T14:06:35;3.80;;;1.70;;
32321;SDS011;61553;48.994;8.940;2024-03-02T14:09:01;2.53;;;1.10;;
32321;SDS011;61553;48.994;8.940;2024-03-02T14:11:26;1.70;;;0.85;;
32321;SDS011;61553;48.994;8.940;2024-03-02T14:13:53;1.75;;;0.80;;
32321;SDS011;61553;48.994;8.940;2024-03-02T14:16:20;2.70;;;0.95;;
32321;SDS011;61553;48.994;8.940;2024-03-02T14:18:45;2.72;;;1.13;;
32321;SDS011;61553;48.994;8.940;2024-03-02T14:21:11;3.28;;;1.02;;
32321;SDS011;61553;48.994;8.940;2024-03-02T14:23:37;2.38;;;0.73;;
32321;SDS011;61553;48.994;8.940;2024-03-02T14:26:02;2.03;;;0.80;;
32321;SDS011;61553;48.994;8.940;2024-03-02T14:28:28;4.05;;;0.88;;
32321;SDS011;61553;48.994;8.940;2024-03-02T14:30:54;4.38;;;1.35;;
32321;SDS011;61553;48.994;8.940;2024-03-02T14:33:19;1.75;;;0.95;;
32321;SDS011;61553;48.994;8.940;2024-03-02T14:35:46;2.67;;;0.90;;
32321;SDS011;61553;48.994;8.940;2024-03-02T14:38:12;3.08;;;1.00;;
32321;SDS011;61553;48.994;8.940;2024-03-02T14:40:38;0.82;;;0.40;;